createdAt,value
2019-03-21T00:02:07.362Z,62.90
2019-03-21T00:04:38.093Z,62.80
2019-03-21T00:07:08.861Z,63.20
2019-03-21T00:09:39.958Z,63.30
2019-03-21T00:12:11.577Z,64.30
2019-03-21T00:14:59.252Z,64.00
2019-03-21T00:17:42.903Z,64.30
2019-03-21T00:20:17.075Z,64.50
2019-03-21T00:22:47.442Z,64.60
2019-03-21T00:25:25.173Z,64.70
2019-03-21T00:27:55.549Z,64.70
2019-03-21T00:30:27.556Z,64.60
2019-03-21T00:32:58.490Z,65.70
2019-03-21T00:35:28.865Z,66.10
2019-03-21T00:37:59.471Z,66.20
2019-03-21T00:40:37.001Z,66.10
2019-03-21T00:43:11.042Z,66.20
2019-03-21T00:45:41.656Z,66.20
2019-03-21T00:48:16.338Z,66.20
2019-03-21T00:50:46.954Z,66.20
2019-03-21T00:53:17.718Z,66.30
2019-03-21T00:55:53.784Z,66.80
2019-03-21T00:58:24.196Z,66.50
2019-03-21T01:01:02.329Z,67.00
2019-03-21T01:03:32.753Z,67.20
2019-03-21T01:06:03.124Z,67.60
2019-03-21T01:08:33.890Z,67.90
2019-03-21T01:11:04.823Z,67.90
2019-03-21T01:13:40.842Z,68.20
2019-03-21T01:16:11.810Z,68.40
2019-03-21T01:18:46.421Z,69.00
2019-03-21T01:21:16.843Z,68.30
2019-03-21T01:23:47.226Z,68.90
2019-03-21T01:26:17.596Z,68.90
2019-03-21T01:28:48.107Z,69.10
2019-03-21T01:31:19.123Z,69.90
2019-03-21T01:33:49.563Z,69.90
2019-03-21T01:36:23.209Z,70.70
2019-03-21T01:38:53.851Z,71.00
2019-03-21T01:41:24.537Z,71.50
2019-03-21T01:43:55.478Z,72.10
2019-03-21T01:46:27.515Z,72.40
2019-03-21T01:48:57.976Z,73.80
2019-03-21T01:51:28.714Z,74.80
2019-03-21T01:53:59.065Z,75.60
2019-03-21T01:56:31.772Z,75.90
2019-03-21T01:59:02.905Z,75.90
2019-03-21T02:01:33.593Z,75.60
2019-03-21T02:04:04.618Z,75.60
2019-03-21T02:06:35.365Z,75.30
2019-03-21T02:09:08.188Z,75.70
2019-03-21T02:11:38.957Z,75.80
2019-03-21T02:14:10.351Z,75.40
2019-03-21T02:16:41.697Z,75.20
2019-03-21T02:19:12.431Z,75.60
2019-03-21T02:21:42.914Z,75.50
2019-03-21T02:24:13.593Z,75.60
2019-03-21T02:26:45.061Z,77.00
2019-03-21T02:29:16.012Z,76.50
2019-03-21T02:31:46.364Z,77.80
2019-03-21T02:34:16.702Z,77.90
2019-03-21T02:36:47.510Z,79.40
2019-03-21T02:39:17.853Z,80.20
2019-03-21T02:41:49.062Z,80.20
2019-03-21T02:44:19.767Z,80.30
2019-03-21T02:46:50.314Z,80.30
2019-03-21T02:49:20.690Z,80.30
2019-03-21T02:51:51.400Z,80.30
2019-03-21T02:54:21.784Z,80.30
2019-03-21T02:56:52.461Z,80.20
2019-03-21T02:59:23.279Z,81.20
2019-03-21T03:01:53.643Z,81.30
2019-03-21T03:04:24.005Z,81.00
2019-03-21T03:06:54.402Z,80.70
2019-03-21T03:09:24.740Z,80.90
2019-03-21T03:11:55.081Z,80.90
2019-03-21T03:14:45.256Z,81.60
2019-03-21T03:17:15.627Z,81.60
2019-03-21T03:19:46.399Z,80.90
2019-03-21T03:22:17.089Z,80.20
2019-03-21T03:24:47.725Z,80.50
2019-03-21T03:27:18.541Z,80.30
2019-03-21T03:29:49.634Z,80.20
2019-03-21T03:32:19.985Z,80.30
2019-03-21T03:34:51.003Z,80.20
2019-03-21T03:37:21.373Z,80.90
2019-03-21T03:39:52.051Z,81.50
2019-03-21T03:42:22.423Z,81.70
2019-03-21T03:44:53.124Z,81.60
2019-03-21T03:47:24.173Z,81.60
2019-03-21T03:49:54.885Z,81.60
2019-03-21T03:52:25.635Z,81.60
2019-03-21T03:54:56.270Z,81.40
2019-03-21T03:57:27.010Z,81.50
2019-03-21T03:59:57.818Z,81.10
2019-03-21T04:02:28.190Z,81.40
2019-03-21T04:04:58.550Z,81.70
2019-03-21T04:07:29.741Z,81.40
2019-03-21T04:10:00.231Z,81.50
2019-03-21T04:12:30.861Z,81.80
2019-03-21T04:15:01.248Z,81.90
2019-03-21T04:17:31.876Z,82.50
2019-03-21T04:20:02.243Z,81.90
2019-03-21T04:22:32.635Z,81.40
2019-03-21T04:25:03.400Z,81.20
2019-03-21T04:27:34.306Z,81.20
2019-03-21T04:30:12.947Z,80.80
2019-03-21T04:32:43.289Z,80.10
2019-03-21T04:35:14.572Z,80.20
2019-03-21T04:37:45.653Z,80.10
2019-03-21T04:40:20.374Z,80.20
2019-03-21T04:42:51.435Z,80.10
2019-03-21T04:45:25.012Z,80.00
2019-03-21T04:47:55.658Z,80.60
2019-03-21T04:50:33.238Z,80.00
2019-03-21T04:53:03.601Z,80.90
2019-03-21T04:55:33.935Z,81.90
2019-03-21T04:58:04.627Z,81.40
2019-03-21T05:01:02.833Z,80.60
2019-03-21T05:03:34.155Z,80.00
2019-03-21T05:06:04.953Z,80.10
2019-03-21T05:08:35.652Z,80.00
2019-03-21T05:11:06.027Z,80.00
2019-03-21T05:13:36.688Z,80.00
2019-03-21T05:16:14.656Z,80.00
2019-03-21T05:18:50.459Z,79.20
2019-03-21T05:21:24.466Z,79.00
2019-03-21T05:23:54.832Z,78.50
2019-03-21T05:26:25.233Z,78.50
2019-03-21T05:28:56.387Z,79.20
2019-03-21T05:31:52.043Z,80.00
2019-03-21T05:34:23.015Z,80.00
2019-03-21T05:36:53.682Z,80.00
2019-03-21T05:39:24.725Z,80.00
2019-03-21T05:41:55.094Z,79.20
2019-03-21T05:44:33.055Z,78.90
2019-03-21T05:47:03.423Z,79.00
2019-03-21T05:49:34.037Z,78.50
2019-03-21T05:52:04.844Z,78.50
2019-03-21T05:54:35.577Z,78.70
2019-03-21T05:57:06.327Z,78.50
2019-03-21T05:59:37.025Z,79.50
2019-03-21T06:02:07.704Z,79.10
2019-03-21T06:04:38.081Z,78.70
2019-03-21T06:07:25.379Z,78.40
2019-03-21T06:09:55.815Z,78.30
2019-03-21T06:12:26.524Z,79.20
2019-03-21T06:15:01.444Z,78.90
2019-03-21T06:17:32.536Z,78.40
2019-03-21T06:20:23.101Z,78.00
2019-03-21T06:23:01.398Z,77.60
2019-03-21T06:26:03.777Z,77.50
2019-03-21T06:28:34.112Z,77.00
2019-03-21T06:31:05.230Z,77.10
2019-03-21T06:33:35.610Z,78.40
2019-03-21T06:36:05.953Z,77.80
2019-03-21T06:38:36.691Z,77.10
2019-03-21T06:41:07.154Z,76.60
2019-03-21T06:43:38.244Z,77.00
2019-03-21T06:46:09.664Z,77.10
2019-03-21T06:48:40.089Z,77.90
2019-03-21T06:51:10.460Z,77.40
2019-03-21T06:53:41.583Z,77.40
2019-03-21T06:56:12.626Z,77.50
2019-03-21T06:58:43.008Z,76.80
2019-03-21T07:01:13.662Z,77.20
2019-03-21T07:03:44.080Z,77.20
2019-03-21T07:06:14.848Z,77.20
2019-03-21T07:08:45.489Z,76.80
2019-03-21T07:11:15.867Z,76.10
2019-03-21T07:13:46.219Z,75.90
2019-03-21T07:16:16.932Z,75.00
2019-03-21T07:18:47.878Z,74.20
2019-03-21T07:21:18.599Z,73.60
2019-03-21T07:23:49.341Z,73.00
2019-03-21T07:26:20.095Z,72.90
2019-03-21T07:28:50.470Z,73.30
2019-03-21T07:31:21.189Z,72.60
2019-03-21T07:33:52.868Z,72.50
2019-03-21T07:36:26.156Z,71.60
2019-03-21T07:38:55.984Z,71.40
2019-03-21T07:41:26.379Z,71.00
2019-03-21T07:43:57.007Z,71.00
2019-03-21T07:46:28.067Z,70.40
2019-03-21T07:48:59.518Z,69.90
2019-03-21T07:51:30.976Z,69.70
2019-03-21T07:54:01.349Z,69.80
2019-03-21T07:56:32.025Z,70.00
2019-03-21T07:59:02.774Z,69.80
2019-03-21T08:01:33.141Z,69.40
2019-03-21T08:04:03.815Z,69.40
2019-03-21T08:06:34.864Z,68.90
2019-03-21T08:09:07.421Z,67.90
2019-03-21T08:11:38.074Z,67.10
2019-03-21T08:14:08.690Z,67.30
2019-03-21T08:16:39.660Z,67.40
2019-03-21T08:19:10.362Z,67.70
2019-03-21T08:21:40.737Z,67.20
2019-03-21T08:24:11.457Z,67.90
2019-03-21T08:26:42.278Z,67.20
2019-03-21T08:29:12.615Z,68.20
2019-03-21T08:31:43.362Z,67.80
2019-03-21T08:34:13.754Z,67.40
2019-03-21T08:36:45.517Z,67.20
2019-03-21T08:39:15.858Z,67.20
2019-03-21T08:41:46.246Z,67.20
2019-03-21T08:44:16.883Z,67.20
2019-03-21T08:46:47.618Z,66.90
2019-03-21T08:49:18.064Z,67.20
2019-03-21T08:51:48.702Z,66.60
2019-03-21T08:54:19.976Z,66.60
2019-03-21T08:56:50.705Z,66.90
2019-03-21T08:59:21.944Z,66.90
2019-03-21T09:01:52.321Z,66.50
2019-03-21T09:04:23.651Z,67.30
2019-03-21T09:06:54.417Z,67.30
2019-03-21T09:09:25.061Z,67.80
2019-03-21T09:11:55.723Z,67.90
2019-03-21T09:14:26.068Z,67.50
2019-03-21T09:16:57.111Z,67.50
2019-03-21T09:19:27.895Z,67.50
2019-03-21T09:21:58.269Z,67.00
2019-03-21T09:24:29.173Z,66.50
2019-03-21T09:26:59.579Z,65.90
2019-03-21T09:29:30.586Z,65.00
2019-03-21T09:32:01.333Z,65.20
2019-03-21T09:34:32.254Z,63.50
2019-03-21T09:37:04.104Z,63.00
2019-03-21T09:39:34.688Z,63.10
2019-03-21T09:42:05.037Z,63.10
2019-03-21T09:44:35.716Z,62.30
2019-03-21T09:47:06.475Z,62.10
2019-03-21T09:49:36.850Z,62.10
2019-03-21T09:52:07.454Z,62.90
2019-03-21T09:54:38.155Z,61.80
2019-03-21T09:57:08.526Z,61.30
2019-03-21T09:59:38.912Z,61.30
2019-03-21T10:02:09.273Z,61.50
2019-03-21T10:04:39.618Z,61.30
2019-03-21T10:07:10.072Z,60.20
2019-03-21T10:09:40.779Z,61.10
2019-03-21T10:12:11.188Z,61.00
2019-03-21T10:14:41.930Z,60.30
2019-03-21T10:17:12.399Z,60.00
2019-03-21T10:19:42.772Z,59.90
2019-03-21T10:22:14.223Z,60.30
2019-03-21T10:24:45.296Z,60.40
2019-03-21T10:27:15.967Z,60.80
2019-03-21T10:29:46.506Z,60.90
2019-03-21T10:32:17.498Z,60.60
2019-03-21T10:34:48.202Z,60.90
2019-03-21T10:37:19.323Z,61.30
2019-03-21T10:39:49.710Z,61.90
2019-03-21T10:42:20.094Z,61.00
2019-03-21T10:44:50.498Z,60.90
2019-03-21T10:47:21.676Z,61.30
2019-03-21T10:49:52.728Z,60.90
2019-03-21T10:52:23.128Z,60.10
2019-03-21T10:54:54.226Z,58.80
2019-03-21T10:57:24.982Z,58.80
2019-03-21T10:59:55.808Z,59.50
2019-03-21T11:02:26.155Z,59.20
2019-03-21T11:04:56.531Z,59.30
2019-03-21T11:07:27.296Z,59.50
2019-03-21T11:09:58.238Z,59.50
2019-03-21T11:12:28.611Z,60.40
2019-03-21T11:14:59.298Z,59.90
2019-03-21T11:17:29.656Z,60.00
2019-03-21T11:20:00.365Z,60.30
2019-03-21T11:22:31.062Z,60.30
2019-03-21T11:25:01.784Z,59.40
2019-03-21T11:27:32.418Z,58.60
2019-03-21T11:30:02.876Z,58.80
2019-03-21T11:32:33.226Z,58.70
2019-03-21T11:35:05.509Z,58.40
2019-03-21T11:37:35.992Z,58.60
2019-03-21T11:40:06.881Z,58.40
2019-03-21T11:42:37.983Z,58.40
2019-03-21T11:45:09.033Z,58.50
2019-03-21T11:47:42.205Z,58.80
2019-03-21T11:50:11.965Z,57.80
2019-03-21T11:52:43.359Z,58.50
2019-03-21T11:55:14.193Z,58.40
2019-03-21T11:57:44.575Z,58.40
2019-03-21T12:00:16.496Z,58.40
2019-03-21T12:02:47.453Z,58.40
2019-03-21T12:05:17.825Z,58.50
2019-03-21T12:07:48.204Z,58.10
2019-03-21T12:10:18.552Z,57.90
2019-03-21T12:12:49.867Z,57.90
2019-03-21T12:15:20.585Z,57.40
2019-03-21T12:17:51.860Z,57.80
2019-03-21T12:20:33.510Z,57.50
2019-03-21T12:23:04.218Z,57.80
2019-03-21T12:25:34.586Z,57.90
2019-03-21T12:28:05.009Z,56.60
2019-03-21T12:30:38.336Z,56.80
2019-03-21T12:33:09.094Z,55.80
2019-03-21T12:35:40.244Z,56.40
2019-03-21T12:38:10.597Z,55.70
2019-03-21T12:40:41.381Z,56.00
2019-03-21T12:43:12.155Z,56.00
2019-03-21T12:45:42.507Z,56.70
2019-03-21T12:48:13.209Z,56.40
2019-03-21T12:50:44.658Z,56.00
2019-03-21T12:53:16.071Z,56.80
2019-03-21T12:55:46.845Z,56.40
2019-03-21T12:58:17.191Z,56.80
2019-03-21T13:00:47.831Z,56.50
2019-03-21T13:03:18.232Z,55.80
2019-03-21T13:05:49.337Z,56.30
2019-03-21T13:08:19.736Z,55.70
2019-03-21T13:10:50.413Z,55.80
2019-03-21T13:13:21.173Z,55.90
2019-03-21T13:15:51.803Z,56.00
2019-03-21T13:18:22.460Z,55.70
2019-03-21T13:20:52.812Z,55.90
2019-03-21T13:23:23.232Z,56.10
2019-03-21T13:25:54.003Z,56.10
2019-03-21T13:28:24.381Z,55.60
2019-03-21T13:30:54.759Z,55.30
2019-03-21T13:33:25.176Z,55.20
2019-03-21T13:35:55.856Z,55.90
2019-03-21T13:38:26.595Z,55.80
2019-03-21T13:40:57.371Z,55.70
2019-03-21T13:43:27.826Z,55.90
2019-03-21T13:45:59.045Z,55.90
2019-03-21T13:48:30.146Z,54.90
2019-03-21T13:51:00.889Z,55.30
2019-03-21T13:53:31.232Z,56.70
2019-03-21T13:56:02.777Z,56.00
2019-03-21T13:58:33.412Z,56.80
2019-03-21T14:01:03.846Z,56.60
2019-03-21T14:03:34.984Z,56.40
2019-03-21T14:06:05.728Z,56.70
2019-03-21T14:08:36.464Z,56.70
2019-03-21T14:11:06.890Z,56.40
2019-03-21T14:13:37.596Z,56.30
2019-03-21T14:16:08.258Z,56.50
2019-03-21T14:18:38.648Z,56.40
2019-03-21T14:21:09.010Z,56.10
2019-03-21T14:23:43.452Z,55.60
2019-03-21T14:26:12.149Z,55.50
2019-03-21T14:28:42.855Z,54.80
2019-03-21T14:31:13.998Z,54.70
2019-03-21T14:33:44.758Z,55.40
2019-03-21T14:36:15.664Z,54.80
2019-03-21T14:38:46.279Z,54.70
2019-03-21T14:41:17.091Z,54.70
2019-03-21T14:43:47.797Z,54.80
2019-03-21T14:46:18.504Z,54.50
2019-03-21T14:48:48.871Z,54.10
2019-03-21T14:51:19.806Z,54.10
2019-03-21T14:53:51.036Z,54.30
2019-03-21T14:56:21.743Z,53.70
2019-03-21T14:58:52.407Z,53.70
2019-03-21T15:01:23.044Z,53.70
2019-03-21T15:03:53.840Z,53.70
2019-03-21T15:06:24.524Z,53.90
2019-03-21T15:08:55.242Z,53.70
2019-03-21T15:11:26.602Z,54.50
2019-03-21T15:13:57.317Z,54.60
2019-03-21T15:16:28.062Z,53.90
2019-03-21T15:18:58.453Z,54.70
2019-03-21T15:21:29.150Z,53.90
2019-03-21T15:24:00.050Z,54.60
2019-03-21T15:26:30.973Z,54.70
2019-03-21T15:29:01.737Z,54.70
2019-03-21T15:31:32.581Z,53.70
2019-03-21T15:34:02.956Z,54.50
2019-03-21T15:36:33.709Z,54.40
2019-03-21T15:39:07.511Z,55.20
2019-03-21T15:41:39.018Z,55.40
2019-03-21T15:44:09.370Z,55.10
2019-03-21T15:46:40.036Z,55.10
2019-03-21T15:49:10.686Z,55.50
2019-03-21T15:51:41.346Z,54.70
2019-03-21T15:54:11.963Z,55.60
2019-03-21T15:56:42.796Z,54.80
2019-03-21T15:59:13.522Z,54.50
2019-03-21T16:01:44.578Z,55.00
2019-03-21T16:04:15.321Z,55.10
2019-03-21T16:06:46.074Z,54.60
2019-03-21T16:09:16.788Z,54.60
2019-03-21T16:11:47.223Z,54.70
2019-03-21T16:14:17.696Z,54.60
2019-03-21T16:16:48.044Z,54.60
2019-03-21T16:19:18.908Z,54.60
2019-03-21T16:21:49.651Z,54.50
2019-03-21T16:24:20.310Z,54.50
2019-03-21T16:26:50.765Z,54.80
2019-03-21T16:29:21.484Z,55.50
2019-03-21T16:31:52.185Z,55.90
2019-03-21T16:34:22.571Z,56.40
2019-03-21T16:36:53.250Z,56.50
2019-03-21T16:39:23.882Z,56.70
2019-03-21T16:41:54.644Z,57.30
2019-03-21T16:44:25.684Z,57.10
2019-03-21T16:46:56.932Z,57.30
2019-03-21T16:49:28.065Z,57.80
2019-03-21T16:51:58.926Z,57.90
2019-03-21T16:54:30.408Z,58.40
2019-03-21T16:57:00.874Z,59.00
2019-03-21T16:59:31.542Z,59.70
2019-03-21T17:02:01.912Z,60.40
2019-03-21T17:04:32.618Z,61.00
2019-03-21T17:07:02.988Z,61.90
2019-03-21T17:09:33.333Z,62.60
2019-03-21T17:12:03.760Z,62.60
2019-03-21T17:14:34.107Z,63.70
2019-03-21T17:17:04.502Z,65.20
2019-03-21T17:19:35.313Z,65.90
2019-03-21T17:22:06.024Z,66.10
2019-03-21T17:24:36.379Z,66.30
2019-03-21T17:27:07.459Z,67.20
2019-03-21T17:29:38.513Z,67.40
2019-03-21T17:32:08.878Z,68.70
2019-03-21T17:34:39.555Z,70.00
2019-03-21T17:37:09.903Z,71.60
2019-03-21T17:39:40.273Z,72.10
2019-03-21T17:42:11.165Z,73.10
2019-03-21T17:44:41.515Z,74.50
2019-03-21T17:47:12.300Z,76.00
2019-03-21T17:49:42.719Z,77.20
2019-03-21T17:52:13.389Z,78.70
2019-03-21T17:54:44.029Z,80.50
2019-03-21T17:57:15.041Z,82.20
2019-03-21T17:59:45.453Z,85.80
2019-03-21T18:02:16.146Z,88.40
2019-03-21T18:04:46.886Z,89.30
2019-03-21T18:07:17.599Z,90.40
2019-03-21T18:09:47.959Z,91.20
2019-03-21T18:12:18.377Z,90.70
2019-03-21T18:14:49.493Z,90.70
2019-03-21T18:17:19.962Z,91.40
2019-03-21T18:19:50.783Z,91.80
2019-03-21T18:22:21.489Z,92.30
2019-03-21T18:24:54.055Z,92.50
2019-03-21T18:27:24.238Z,93.00
2019-03-21T18:29:54.590Z,93.10
2019-03-21T18:32:25.410Z,93.90
2019-03-21T18:34:56.057Z,93.90
2019-03-21T18:37:26.741Z,94.20
2019-03-21T18:39:57.350Z,94.50
2019-03-21T18:42:28.463Z,94.50
2019-03-21T18:44:58.821Z,94.70
2019-03-21T18:47:29.797Z,94.80
2019-03-21T18:50:01.880Z,95.10
2019-03-21T18:52:32.512Z,95.30
2019-03-21T18:55:06.542Z,95.30
2019-03-21T18:57:35.829Z,95.60
2019-03-21T19:00:11.354Z,95.50
2019-03-21T19:02:41.757Z,95.40
2019-03-21T19:05:12.527Z,95.70
2019-03-21T19:07:42.908Z,95.70
2019-03-21T19:10:15.354Z,96.10
2019-03-21T19:12:45.739Z,96.30
2019-03-21T19:15:19.576Z,96.20
2019-03-21T19:17:50.531Z,96.00
2019-03-21T19:20:21.264Z,95.70
2019-03-21T19:22:52.001Z,95.60
2019-03-21T19:25:22.716Z,95.40
2019-03-21T19:27:53.494Z,95.30
2019-03-21T19:30:24.901Z,95.20
2019-03-21T19:32:55.555Z,95.10
2019-03-21T19:35:26.162Z,95.10
2019-03-21T19:37:56.541Z,95.10
2019-03-21T19:40:26.886Z,95.50
2019-03-21T19:42:57.353Z,95.70
2019-03-21T19:45:27.963Z,95.60
2019-03-21T19:47:58.339Z,95.50
2019-03-21T19:50:28.843Z,95.50
2019-03-21T19:52:59.832Z,95.60
2019-03-21T19:55:31.393Z,95.60
2019-03-21T19:58:02.197Z,95.70
2019-03-21T20:00:32.804Z,95.70
2019-03-21T20:03:03.157Z,95.70
2019-03-21T20:05:33.890Z,95.90
2019-03-21T20:08:04.835Z,96.20
2019-03-21T20:10:35.207Z,96.20
2019-03-21T20:13:05.571Z,96.30
2019-03-21T20:15:36.544Z,96.30
2019-03-21T20:18:07.259Z,96.20
2019-03-21T20:20:37.989Z,96.40
2019-03-21T20:23:09.069Z,97.10
2019-03-21T20:25:43.167Z,97.30
2019-03-21T20:28:11.918Z,97.30
2019-03-21T20:30:42.280Z,97.20
2019-03-21T20:33:12.607Z,97.30
2019-03-21T20:35:43.374Z,97.50
2019-03-21T20:38:13.795Z,98.10
2019-03-21T20:40:44.165Z,98.20
2019-03-21T20:43:14.842Z,98.20
2019-03-21T20:45:45.502Z,98.20
2019-03-21T20:48:15.901Z,98.30
2019-03-21T20:50:46.648Z,98.10
2019-03-21T20:53:17.027Z,98.40
2019-03-21T20:55:53.585Z,98.20
2019-03-21T20:58:19.766Z,98.20
2019-03-21T21:00:50.255Z,98.40
2019-03-21T21:03:20.888Z,98.60
2019-03-21T21:05:51.259Z,98.60
2019-03-21T21:08:21.892Z,98.60
2019-03-21T21:10:52.649Z,98.40
2019-03-21T21:13:23.019Z,98.10
2019-03-21T21:15:53.371Z,98.80
2019-03-21T21:18:24.110Z,99.00
2019-03-21T21:20:54.540Z,98.90
2019-03-21T21:23:25.154Z,98.80
2019-03-21T21:26:05.085Z,99.00
2019-03-21T21:28:28.292Z,99.00
2019-03-21T21:30:58.959Z,98.80
2019-03-21T21:33:29.785Z,98.60
2019-03-21T21:36:00.590Z,97.90
2019-03-21T21:38:31.136Z,98.10
2019-03-21T21:41:01.771Z,98.10
2019-03-21T21:43:32.813Z,98.10
2019-03-21T21:46:04.477Z,98.50
2019-03-21T21:48:34.823Z,99.50
2019-03-21T21:51:05.191Z,99.90
2019-03-21T21:53:35.560Z,99.90
2019-03-21T21:56:17.247Z,99.90
2019-03-21T21:58:38.758Z,99.90
2019-03-21T22:01:09.403Z,99.90
2019-03-21T22:03:40.032Z,99.90
2019-03-21T22:06:10.758Z,99.90
2019-03-21T22:08:41.817Z,99.90
2019-03-21T22:11:12.497Z,99.90
2019-03-21T22:13:42.904Z,99.90
2019-03-21T22:16:13.296Z,99.90
2019-03-21T22:18:43.943Z,99.40
2019-03-21T22:21:14.576Z,99.30
2019-03-21T22:23:44.925Z,99.00
2019-03-21T22:26:15.615Z,98.60
2019-03-21T22:28:45.979Z,98.40
2019-03-21T22:31:16.691Z,98.30
2019-03-21T22:33:47.071Z,98.10
2019-03-21T22:36:17.813Z,97.90
2019-03-21T22:38:48.812Z,97.90
2019-03-21T22:41:19.475Z,98.10
2019-03-21T22:43:50.184Z,98.50
2019-03-21T22:46:20.561Z,98.80
2019-03-21T22:48:50.928Z,98.80
2019-03-21T22:51:22.063Z,98.80
2019-03-21T22:53:52.442Z,98.80
2019-03-21T22:56:23.046Z,98.80
2019-03-21T22:58:53.782Z,98.60
2019-03-21T23:01:24.220Z,98.60
2019-03-21T23:03:54.592Z,98.60
2019-03-21T23:06:24.928Z,98.20
2019-03-21T23:08:55.320Z,98.40
2019-03-21T23:11:26.024Z,98.80
2019-03-21T23:13:56.398Z,98.70
2019-03-21T23:16:27.521Z,98.80
2019-03-21T23:18:58.533Z,98.60
2019-03-21T23:21:29.155Z,98.90
2019-03-21T23:23:59.959Z,99.00
2019-03-21T23:26:30.513Z,99.00
2019-03-21T23:29:00.871Z,99.00
2019-03-21T23:31:31.936Z,98.80
2019-03-21T23:34:02.782Z,98.60
2019-03-21T23:36:33.808Z,98.60
2019-03-21T23:39:04.851Z,99.20
2019-03-21T23:41:35.233Z,99.50
2019-03-21T23:44:05.565Z,99.40
2019-03-21T23:46:36.645Z,99.00
2019-03-21T23:49:06.990Z,98.70
2019-03-21T23:51:37.702Z,98.60
2019-03-21T23:54:08.038Z,98.50
2019-03-21T23:56:39.172Z,98.40
2019-03-21T23:59:10.213Z,98.40
